Latest Weather Observations for Leigh Creek

IDS60801

Issued at 11:02 pm CST Wednesday 28 September 2016 (issued every 30 minutes, with the page automatically refreshed every 10 minutes)

About weather observations | Map of weather stations | Latest weather observations for SA | Other Formats
Station Details ID: 017110 Name: LEIGH CREEK AIRPORT Lat: -30.60 Lon: 138.42 Height: 258.8 m
Data from the previous 72 hours. | See also: Recent months at Leigh Creek
Date/Time
CST
Temp
°C
App
Temp
°C
Dew
Point
°C
Rel
Hum
%
Delta-T
°C
Wind Press
QNH
hPa
Press
MSL
hPa
Rain since
9am
mm
Dir  Spd
km/h
Gust
km/h
Spd
kts
Gust
kts
28/11:00pm 10.1 -1.4 0.2 50 4.1 WSW 50 70 27 38 1001.4 1000.9 7.2
28/10:30pm 10.2 -0.4 0.5 51 4.0 WSW 46 65 25 35 1001.1 1000.6 7.2
28/10:00pm 10.5 -0.3 1.9 55 3.7 WSW 48 69 26 37 1001.8 1001.3 7.2
28/09:30pm 11.7 -1.4 0.8 47 4.6 WSW 59 93 32 50 1001.6 1001.1 7.2
28/09:28pm 11.7 -1.0 0.8 47 4.6 WSW 57 93 31 50 1001.4 1000.9 7.2
28/09:00pm 12.5 1.5 0.6 44 5.1 WSW 48 69 26 37 1001.4 1000.9 7.2
28/08:30pm 13.4 0.4 1.4 44 5.3 SW 59 87 32 47 1000.8 1000.2 7.2
28/08:19pm 15.1 2.5 -2.3 30 7.1 WSW 54 95 29 51 1000.2 999.7 7.2
28/08:00pm 15.7 3.5 -2.3 29 7.4 WSW 52 69 28 37 999.9 999.4 7.2
28/07:30pm 16.7 4.1 -2.9 26 8.1 WSW 54 78 29 42 999.0 998.5 7.2
28/07:00pm 17.9 4.2 -0.8 28 8.1 WSW 61 89 33 48 997.5 996.9 7.2
28/06:30pm 19.4 5.3 1.4 30 8.3 WSW 65 87 35 47 996.5 995.9 7.2
28/06:12pm 20.9 6.7 3.2 31 8.5 WSW 67 93 36 50 995.9 995.4 7.2
28/06:00pm 21.9 10.9 4.9 33 8.6 W 52 80 28 43 995.7 995.2 7.2
28/05:30pm 22.6 13.0 4.2 30 9.2 W 44 67 24 36 995.2 994.7 7.2
28/05:14pm 22.8 19.6 21.8 94 0.7 WNW 41 72 22 39 994.5 994.0 7.2
28/05:13pm 22.3 19.5 21.8 97 0.3 WNW 39 56 21 30 994.5 994.0 7.2
28/05:04pm 21.6 19.7 21.4 99 0.1 NW 33 56 18 30 994.0 993.4 7.2
28/05:00pm 20.6 17.9 20.4 99 0.1 NNW 35 52 19 28 993.7 993.1 7.2
28/04:30pm 20.8 13.7 17.0 79 2.4 N 50 72 27 39 992.9 992.3 3.2
28/04:25pm 20.8 14.0 16.8 78 2.5 N 48 72 26 39 992.3 991.7 3.0
28/04:00pm 25.8 18.7 14.9 51 6.6 N 46 67 25 36 994.5 994.0 2.2
28/03:31pm 25.2 18.4 14.9 52 6.2 N 44 63 24 34 995.4 994.9 2.2
28/03:30pm 25.3 18.6 15.0 53 6.3 N 44 59 24 32 995.3 994.8 2.2
28/03:00pm 24.0 17.3 14.7 56 5.6 N 43 57 23 31 996.1 995.6 2.2
28/02:30pm 24.2 17.5 15.1 56 5.5 N 44 61 24 33 997.5 996.9 2.2
28/02:12pm 24.4 18.1 15.6 58 5.4 N 43 61 23 33 998.0 997.5 2.2
28/02:00pm 24.0 17.5 15.5 59 5.2 N 44 57 24 31 998.5 998.0 2.2
28/01:30pm 22.9 16.5 15.5 63 4.5 N 43 61 23 33 999.1 998.6 2.2
28/01:27pm 22.4 16.3 15.3 64 4.3 N 41 61 22 33 999.3 998.8 2.2
28/01:00pm 21.5 15.6 15.8 70 3.5 N 41 52 22 28 1000.4 999.8 2.2
28/12:30pm 20.4 16.3 16.4 78 2.4 N 33 46 18 25 1001.2 1000.7 2.2
28/12:00pm 19.7 15.9 16.7 83 1.8 NNE 32 43 17 23 1002.1 1001.6 2.2
28/11:30am 18.2 14.0 15.8 86 1.4 N 32 44 17 24 1003.4 1002.9 2.0
28/11:00am 17.8 13.2 15.1 84 1.6 N 33 46 18 25 1003.8 1003.3 1.8
28/10:36am 21.3 13.8 12.2 56 5.2 N 43 61 23 33 1004.9 1004.4 0.0
28/10:30am 21.1 12.4 12.5 58 4.9 N 50 63 27 34 1004.2 1003.7 0.0
28/10:10am 21.3 12.4 11.9 55 5.3 N 50 69 27 37 1003.7 1003.2 0.0
28/10:00am 21.2 13.0 11.8 55 5.3 N 46 63 25 34 1003.3 1002.8 0.0
28/09:36am 21.5 12.9 11.5 53 5.6 NNE 48 69 26 37 1003.4 1002.9 0.0
28/09:30am 22.5 14.4 12.2 52 5.9 N 46 61 25 33 1003.4 1002.9 0.0
28/09:01am 21.7 14.0 11.4 52 5.8 N 43 61 23 33 1004.1 1003.6 0.0
28/09:00am 21.8 14.3 10.9 50 6.1 N 41 56 22 30 1004.1 1003.6 0.0
28/08:30am 20.7 12.0 8.4 45 6.5 NNE 44 61 24 33 1005.1 1004.6 0.0
28/08:27am 20.9 12.3 8.2 44 6.7 NNE 43 61 23 33 1005.2 1004.7 0.0
28/08:00am 20.1 12.1 7.5 44 6.5 NNE 39 54 21 29 1006.0 1005.5 0.0
28/07:43am 19.7 11.6 7.1 44 6.5 NNE 39 57 21 31 1006.5 1006.0 0.0
28/07:30am 19.2 11.9 7.0 45 6.3 NNE 35 50 19 27 1006.4 1005.9 0.0
28/07:00am 18.1 10.2 6.3 46 5.9 NNE 37 52 20 28 1006.4 1005.9 0.0
28/06:42am 17.3 10.7 5.9 47 5.6 NNE 30 46 16 25 1006.8 1006.3 0.0
28/06:30am 16.5 11.0 5.8 49 5.3 NNE 24 28 13 15 1007.3 1006.8 0.0
28/06:00am 15.6 10.9 6.1 53 4.7 N 20 30 11 16 1007.7 1007.3 0.0
28/05:30am 11.8 8.3 5.4 65 3.0 NNE 13 17 7 9 1007.5 1007.0 0.0
28/05:00am 10.3 8.3 4.2 66 2.8 SE 4 9 2 5 1008.1 1007.7 0.0
28/04:30am 10.3 8.6 4.2 66 2.8 SE 2 6 1 3 1008.5 1008.0 0.0
28/04:00am 11.5 8.4 3.8 59 3.5 SE 9 11 5 6 1008.8 1008.3 0.0
28/03:30am 11.3 7.4 3.6 59 3.5 SE 13 13 7 7 1009.1 1008.6 0.0
28/03:00am 10.4 6.6 3.7 63 3.0 SE 13 15 7 8 1009.5 1009.0 0.0
28/02:30am 10.5 6.9 3.1 60 3.3 SE 11 13 6 7 1009.9 1009.4 0.0
28/02:00am 9.7 6.8 2.8 62 3.0 ESE 7 11 4 6 1010.3 1009.8 0.0
28/01:30am 10.1 6.8 2.5 59 3.3 SE 9 13 5 7 1010.8 1010.3 0.0
28/01:00am 10.1 6.8 2.2 58 3.4 SE 9 11 5 6 1011.4 1011.0 0.0
28/12:30am 10.1 6.1 2.9 61 3.1 SE 13 15 7 8 1012.0 1011.6 0.0
28/12:00am 9.6 6.8 3.4 65 2.7 ESE 7 9 4 5 1012.7 1012.2 0.0
 
Date/Time
CST
Temp
°C
App
Temp
°C
Dew
Point
°C
Rel
Hum
%
Delta-T
°C
Wind Press
QNH
hPa
Press
MSL
hPa
Rain since
9am
mm
Dir  Spd
km/h
Gust
km/h
Spd
kts
Gust
kts
27/11:30pm 10.1 7.5 3.4 63 3.0 ESE 6 11 3 6 1013.1 1012.6 0.0
27/11:00pm 10.3 7.2 3.6 63 3.0 ESE 9 11 5 6 1013.2 1012.7 0.0
27/10:30pm 11.4 7.8 2.7 55 3.8 SE 11 15 6 8 1013.5 1013.0 0.0
27/10:00pm 11.5 7.5 3.0 56 3.8 E 13 19 7 10 1013.8 1013.3 0.0
27/09:30pm 11.4 7.4 2.9 56 3.8 SE 13 17 7 9 1013.9 1013.4 0.0
27/09:00pm 11.6 8.8 2.9 55 3.9 S 7 13 4 7 1014.0 1013.5 0.0
27/08:30pm 11.9 9.6 2.6 53 4.1 S 4 11 2 6 1014.0 1013.5 0.0
27/08:00pm 15.2 12.9 -2.2 30 7.1 CALM 0 0 0 0 1014.0 1013.5 0.0
27/07:30pm 14.8 11.2 -2.1 31 6.9 WNW 7 9 4 5 1013.9 1013.4 0.0
27/07:00pm 15.8 11.9 -1.3 31 7.2 WNW 9 11 5 6 1013.9 1013.4 0.0
27/06:30pm 16.7 12.6 -0.5 31 7.4 WNW 11 13 6 7 1013.7 1013.2 0.0
27/06:00pm 19.3 15.3 -2.3 23 9.2 W 9 11 5 6 1013.6 1013.1 0.0
27/05:30pm 20.7 15.2 -5.2 17 10.5 W 15 19 8 10 1013.4 1012.9 0.0
27/05:00pm 21.3 15.2 -7.2 14 11.2 SW 17 22 9 12 1013.4 1012.9 0.0
27/04:30pm 21.9 16.5 -4.2 17 10.9 SW 15 24 8 13 1013.4 1012.9 0.0
27/04:00pm 21.9 15.5 -5.0 16 11.1 W 20 26 11 14 1013.5 1013.0 0.0
27/03:30pm 21.8 15.4 -5.1 16 11.1 WSW 20 30 11 16 1013.7 1013.2 0.0
27/03:00pm 22.6 16.4 -4.5 16 11.4 WSW 19 32 10 17 1013.8 1013.3 0.0
27/02:30pm 22.6 18.0 -3.7 17 11.2 W 11 19 6 10 1014.1 1013.6 0.0
27/02:00pm 21.1 15.6 -2.0 21 10.0 S 17 24 9 13 1014.4 1014.0 0.0
27/01:30pm 20.8 16.3 -0.5 24 9.5 SSW 13 26 7 14 1014.9 1014.5 0.0
27/01:00pm 20.0 15.8 1.4 29 8.6 SW 13 22 7 12 1015.1 1014.7 0.0
27/12:30pm 19.8 15.2 1.7 30 8.4 SSW 15 22 8 12 1015.5 1015.1 0.0
27/12:00pm 18.9 13.5 1.4 31 8.0 SSW 19 26 10 14 1016.0 1015.6 0.0
27/11:30am 19.0 13.4 1.1 30 8.1 SW 20 26 11 14 1016.4 1016.0 0.0
27/11:00am 18.5 13.6 1.9 33 7.6 SSW 17 22 9 12 1016.8 1016.3 0.0
27/10:30am 18.1 13.5 3.6 38 6.9 SSW 17 22 9 12 1017.0 1016.5 0.0
27/10:00am 17.2 13.7 3.5 40 6.4 SW 11 19 6 10 1017.4 1016.9 0.0
27/09:30am 16.0 12.6 3.8 44 5.7 SSW 11 17 6 9 1017.6 1017.1 0.0
27/09:00am 15.1 12.2 4.8 50 4.9 S 9 15 5 8 1017.7 1017.3 0.0
27/08:30am 13.7 11.6 5.8 59 3.8 S 6 9 3 5 1017.6 1017.1 0.0
27/08:00am 12.5 9.8 5.4 62 3.3 SSW 9 15 5 8 1017.6 1017.1 0.0
27/07:30am 11.4 8.4 5.9 69 2.6 SSW 11 15 6 8 1017.3 1016.8 0.0
27/07:00am 10.3 6.9 6.1 75 2.0 S 13 20 7 11 1016.9 1016.4 0.0
27/06:30am 9.0 5.6 6.1 82 1.3 S 13 15 7 8 1016.8 1016.3 0.0
27/06:00am 8.7 4.6 6.0 83 1.2 S 17 19 9 10 1016.4 1016.0 0.0
27/05:30am 9.1 5.4 6.4 83 1.3 S 15 20 8 11 1016.0 1015.6 0.0
27/05:00am 9.5 6.6 6.4 81 1.5 S 11 17 6 9 1015.8 1015.4 0.0
27/04:30am 9.6 5.7 7.0 84 1.2 SSW 17 20 9 11 1015.3 1014.9 0.0
27/04:00am 10.2 5.8 7.4 83 1.4 SSW 20 26 11 14 1015.1 1014.7 0.0
27/03:30am 10.5 6.7 7.6 82 1.4 SSW 17 20 9 11 1015.1 1014.7 0.0
27/03:00am 11.2 7.1 7.9 80 1.6 S 19 22 10 12 1014.8 1014.4 0.0
27/02:30am 11.3 7.6 7.8 79 1.7 SSW 17 20 9 11 1014.9 1014.5 0.0
27/02:00am 11.9 8.9 7.8 76 2.0 SSW 13 17 7 9 1015.1 1014.7 0.0
27/01:30am 12.6 10.0 7.7 72 2.4 S 11 15 6 8 1015.1 1014.7 0.0
27/01:00am 12.9 9.5 7.6 70 2.6 SSW 15 17 8 9 1015.1 1014.7 0.0
27/12:30am 12.9 10.5 7.1 68 2.8 SSW 9 15 5 8 1015.4 1015.0 0.0
27/12:00am 13.7 11.1 6.3 61 3.6 SSW 9 11 5 6 1015.4 1015.0 0.0
 
Date/Time
CST
Temp
°C
App
Temp
°C
Dew
Point
°C
Rel
Hum
%
Delta-T
°C
Wind Press
QNH
hPa
Press
MSL
hPa
Rain since
9am
mm
Dir  Spd
km/h
Gust
km/h
Spd
kts
Gust
kts
26/11:30pm 15.3 11.7 5.2 51 4.8 SW 13 19 7 10 1015.4 1015.0 0.0
26/11:00pm 16.6 12.2 4.6 45 5.7 W 17 24 9 13 1015.3 1014.9 0.0
26/10:30pm 17.1 12.6 4.4 43 6.1 WNW 17 24 9 13 1015.4 1015.0 0.0
26/10:00pm 16.7 11.9 4.7 45 5.8 WSW 19 24 10 13 1015.6 1015.2 0.0
26/09:30pm 16.6 12.9 4.3 44 5.8 WNW 13 19 7 10 1015.2 1014.8 0.0
26/09:00pm 17.2 13.1 4.5 43 6.1 WNW 15 20 8 11 1014.9 1014.5 0.0
26/08:30pm 17.3 13.2 4.6 43 6.1 WNW 15 19 8 10 1014.7 1014.3 0.0
26/08:00pm 16.7 13.1 5.0 46 5.6 NW 13 19 7 10 1014.4 1014.0 0.0
26/07:30pm 17.3 13.0 5.3 45 5.9 NNW 17 20 9 11 1013.9 1013.4 0.0
26/07:00pm 17.7 13.8 5.3 44 6.1 NNW 15 17 8 9 1013.5 1013.0 0.0
26/06:30pm 18.9 14.5 5.0 40 6.8 NNW 17 19 9 10 1013.2 1012.7 0.0
26/06:00pm 20.5 16.0 4.1 34 8.0 NNW 17 20 9 11 1013.0 1012.5 0.0
26/05:30pm 21.9 16.5 2.6 28 9.2 NNW 20 30 11 16 1013.1 1012.6 0.0
26/05:00pm 22.6 16.9 2.7 27 9.6 NNW 22 30 12 16 1013.1 1012.6 0.0
26/04:30pm 22.7 16.5 2.2 26 9.8 NW 24 39 13 21 1013.2 1012.7 0.0
26/04:10pm 23.0 15.6 1.9 25 10.0 NNW 30 48 16 26 1013.3 1012.8 0.0
26/04:00pm 22.5 15.0 1.5 25 9.9 NNW 30 46 16 25 1013.1 1012.6 0.0
26/03:30pm 22.5 15.1 2.1 26 9.7 NNW 30 43 16 23 1013.0 1012.5 0.0
26/03:00pm 22.7 15.8 2.8 27 9.6 NNW 28 41 15 22 1013.2 1012.7 0.0
26/02:30pm 22.3 14.9 1.9 26 9.7 NNW 30 44 16 24 1013.4 1012.9 0.0
26/02:00pm 22.3 14.0 2.4 27 9.5 NNW 35 46 19 25 1013.6 1013.1 0.0
26/01:30pm 22.4 15.6 3.0 28 9.4 NNW 28 39 15 21 1013.9 1013.4 0.0
26/01:00pm 22.2 16.3 1.8 26 9.6 NNW 22 35 12 19 1014.1 1013.6 0.0
26/12:30pm 21.9 16.2 2.6 28 9.2 NNW 22 30 12 16 1014.6 1014.2 0.0
26/12:00pm 20.9 14.8 2.7 30 8.7 NNW 24 32 13 17 1015.1 1014.7 0.0
26/11:30am 20.4 14.6 2.3 30 8.5 N 22 30 12 16 1015.4 1015.0 0.0
26/11:00am 20.1 14.3 2.5 31 8.3 N 22 30 12 16 1015.8 1015.4 0.0
26/10:30am 18.9 13.0 1.4 31 8.0 N 22 28 12 15 1016.2 1015.8 0.0
26/10:00am 18.7 13.5 3.3 36 7.3 N 20 28 11 15 1016.3 1015.9 0.0
26/09:30am 17.3 11.6 2.9 38 6.7 N 22 30 12 16 1016.7 1016.2 0.0
26/09:00am 15.9 10.7 3.4 43 5.8 N 20 26 11 14 1016.7 1016.2 0.0
26/08:30am 14.8 10.2 3.9 48 5.1 N 17 22 9 12 1016.2 1015.8 0.0
26/08:00am 11.9 9.3 4.4 60 3.4 ENE 7 9 4 5 1016.1 1015.7 0.0
26/07:30am 9.9 8.5 3.6 65 2.8 CALM 0 0 0 0 1016.1 1015.7 0.0
26/07:00am 8.0 6.6 3.5 73 2.0 CALM 0 0 0 0 1015.9 1015.5 0.0
26/06:30am 5.2 2.4 3.1 86 0.9 SE 7 9 4 5 1015.8 1015.4 0.0
26/06:00am 5.1 1.1 2.8 85 1.0 ESE 13 13 7 7 1015.1 1014.7 0.0
26/05:30am 5.4 2.2 3.1 85 1.0 SE 9 11 5 6 1015.2 1014.8 0.0
26/05:00am 6.6 3.8 3.2 79 1.4 SE 7 9 4 5 1015.0 1014.6 0.0
26/04:30am 6.2 3.1 3.4 82 1.2 SE 9 11 5 6 1014.8 1014.4 0.0
26/04:00am 5.7 2.9 3.4 85 1.0 SE 7 11 4 6 1014.8 1014.4 0.0
26/03:30am 5.8 3.7 3.8 87 0.9 ESE 4 11 2 6 1014.9 1014.5 0.0
26/03:00am 6.0 3.9 3.8 86 0.9 ESE 4 7 2 4 1015.3 1014.9 0.0
26/02:30am 6.5 3.5 4.0 84 1.1 SE 9 13 5 7 1015.5 1015.1 0.0
26/02:00am 7.2 4.3 4.5 83 1.2 SE 9 13 5 7 1016.0 1015.6 0.0
26/01:30am 7.1 4.8 4.6 84 1.1 SE 6 9 3 5 1016.3 1015.9 0.0
26/01:00am 7.8 4.9 4.7 81 1.4 SE 9 11 5 6 1016.8 1016.3 0.0
26/12:30am 7.5 5.0 5.0 84 1.1 SE 7 11 4 6 1017.0 1016.5 0.0
26/12:00am 7.6 6.5 4.9 83 1.2 CALM 0 0 0 0 1017.0 1016.5 0.0
 
Date/Time
CST
Temp
°C
App
Temp
°C
Dew
Point
°C
Rel
Hum
%
Delta-T
°C
Wind Press
QNH
hPa
Press
MSL
hPa
Rain since
9am
mm
Dir  Spd
km/h
Gust
km/h
Spd
kts
Gust
kts
25/11:30pm 8.4 5.6 5.0 79 1.5 SE 9 11 5 6 1017.0 1016.5 0.0

Other Formats:

Comma delimited format used in spreadsheet applications
http://www.bom.gov.au/fwo/IDS60801/IDS60801.94674.axf

JavaScript Object Notation format (JSON) in row-major order
http://www.bom.gov.au/fwo/IDS60801/IDS60801.94674.json